Time;durP1;ratioP1;P1;durP2;ratioP2;P2;SDS_P1;SDS_P2;PMS_P1;PMS_P2;Temp;Humidity;BMP_temperature;BMP_pressure;BME280_temperature;BME280_humidity;BME280_pressure;Samples;Min_cycle;Max_cycle;Signal;HPM_P1;HPM_P2
2022/04/15 00:02:20;;;;;;;3.78;2.15;;;;;;;;;;5049676;28;20425;-83
2022/04/15 00:04:45;;;;;;;5.72;3.13;;;;;;;;;;5045415;28;20169;-84
2022/04/15 00:07:11;;;;;;;3.55;2.22;;;;;;;;;;5058050;28;20032;-83
2022/04/15 00:09:36;;;;;;;2.83;1.83;;;;;;;;;;5058111;28;20098;-82
2022/04/15 00:12:07;;;;;;;3.88;2.30;;;;;;;;;;5025575;28;20036;-84
2022/04/15 00:14:33;;;;;;;4.35;2.60;;;;;;;;;;5026702;28;20459;-84
2022/04/15 00:16:59;;;;;;;2.70;1.98;;;;;;;;;;5058216;28;20123;-83
2022/04/15 00:19:24;;;;;;;3.58;2.25;;;;;;;;;;5041728;28;20410;-83
2022/04/15 00:21:50;;;;;;;3.47;1.95;;;;;;;;;;5058031;28;20047;-83
2022/04/15 00:24:15;;;;;;;3.97;1.80;;;;;;;;;;5041748;28;20498;-83
2022/04/15 00:26:41;;;;;;;4.38;2.13;;;;;;;;;;5041510;28;20071;-83
2022/04/15 00:29:07;;;;;;;3.47;2.10;;;;;;;;;;5058220;28;20391;-83
2022/04/15 00:31:33;;;;;;;4.13;1.92;;;;;;;;;;5074245;28;20032;-84
2022/04/15 00:33:59;;;;;;;3.60;1.90;;;;;;;;;;5041331;28;20089;-83
2022/04/15 00:36:24;;;;;;;4.65;2.15;;;;;;;;;;5057642;28;20111;-83
2022/04/15 00:38:50;;;;;;;3.35;1.90;;;;;;;;;;5040989;28;20046;-83
2022/04/15 00:41:15;;;;;;;3.65;1.90;;;;;;;;;;5040977;28;20460;-83
2022/04/15 00:43:41;;;;;;;3.55;1.90;;;;;;;;;;5058013;28;20456;-84
2022/04/15 00:46:09;;;;;;;4.38;2.20;;;;;;;;;;5041392;28;20044;-84
2022/04/15 00:48:38;;;;;;;3.97;2.30;;;;;;;;;;5074538;28;20039;-83
2022/04/15 00:51:04;;;;;;;3.30;1.90;;;;;;;;;;5039405;28;20035;-84
2022/04/15 00:53:30;;;;;;;3.80;1.73;;;;;;;;;;5040994;28;20036;-84
2022/04/15 00:55:57;;;;;;;3.60;2.47;;;;;;;;;;5040999;28;20032;-83
2022/04/15 00:58:25;;;;;;;4.03;2.05;;;;;;;;;;5057909;28;20056;-83
2022/04/15 01:00:53;;;;;;;2.90;1.73;;;;;;;;;;5069850;28;20494;-83
2022/04/15 01:03:21;;;;;;;3.42;2.00;;;;;;;;;;5074006;28;20048;-81
2022/04/15 01:05:47;;;;;;;3.17;1.70;;;;;;;;;;5044940;28;20454;-81
2022/04/15 01:08:12;;;;;;;3.03;1.88;;;;;;;;;;5060837;28;20038;-81
2022/04/15 01:10:38;;;;;;;3.55;1.90;;;;;;;;;;5060789;28;20417;-83
2022/04/15 01:13:06;;;;;;;3.45;2.25;;;;;;;;;;5044287;28;20088;-83
2022/04/15 01:15:31;;;;;;;3.50;2.00;;;;;;;;;;5057331;28;20496;-83
2022/04/15 01:17:57;;;;;;;2.42;1.67;;;;;;;;;;5043951;28;20032;-83
2022/04/15 01:20:22;;;;;;;3.30;1.65;;;;;;;;;;5077100;28;20071;-83
2022/04/15 01:22:55;;;;;;;3.20;1.90;;;;;;;;;;5043732;28;20062;-84
2022/04/15 01:25:21;;;;;;;3.10;1.92;;;;;;;;;;5060220;28;20035;-83
2022/04/15 01:27:47;;;;;;;5.10;2.03;;;;;;;;;;5060520;28;20035;-83
2022/04/15 01:30:17;;;;;;;3.20;1.58;;;;;;;;;;5056890;28;20035;-84
2022/04/15 01:32:43;;;;;;;3.28;1.85;;;;;;;;;;5055966;28;20118;-83
2022/04/15 01:35:09;;;;;;;2.88;1.77;;;;;;;;;;5060232;28;20075;-85
2022/04/15 01:37:35;;;;;;;2.55;1.60;;;;;;;;;;5073446;28;20036;-85
2022/04/15 01:40:03;;;;;;;3.50;1.90;;;;;;;;;;5042401;28;20042;-85
2022/04/15 01:42:29;;;;;;;3.65;1.98;;;;;;;;;;5060105;28;20040;-85
2022/04/15 01:44:55;;;;;;;3.55;1.85;;;;;;;;;;5076795;28;20031;-85
2022/04/15 01:47:22;;;;;;;3.15;1.92;;;;;;;;;;5077337;28;20051;-85
2022/04/15 01:49:47;;;;;;;2.70;1.80;;;;;;;;;;5043439;28;20031;-84
2022/04/15 01:52:14;;;;;;;2.58;1.83;;;;;;;;;;5060115;28;20047;-85
2022/04/15 01:54:41;;;;;;;3.10;1.95;;;;;;;;;;5047105;28;20093;-85
2022/04/15 01:57:07;;;;;;;3.55;2.00;;;;;;;;;;5040246;28;20379;-85
2022/04/15 01:59:32;;;;;;;3.67;2.33;;;;;;;;;;5040380;28;20031;-85
2022/04/15 02:01:57;;;;;;;3.70;2.30;;;;;;;;;;5039757;28;20105;-85
2022/04/15 02:04:26;;;;;;;3.00;1.75;;;;;;;;;;5057070;28;20039;-85
2022/04/15 02:06:52;;;;;;;3.22;1.77;;;;;;;;;;5039805;28;20097;-85
2022/04/15 02:09:19;;;;;;;3.60;2.13;;;;;;;;;;5039913;28;20538;-85
2022/04/15 02:11:44;;;;;;;3.63;1.88;;;;;;;;;;5040112;28;20093;-85
2022/04/15 02:14:12;;;;;;;3.20;1.95;;;;;;;;;;5040383;28;20028;-85
2022/04/15 02:16:38;;;;;;;3.03;1.83;;;;;;;;;;5040629;28;20036;-84
2022/04/15 02:19:03;;;;;;;3.20;1.67;;;;;;;;;;5039731;28;20078;-85
2022/04/15 02:21:29;;;;;;;3.65;2.00;;;;;;;;;;5040048;28;20077;-85
2022/04/15 02:23:55;;;;;;;3.05;1.80;;;;;;;;;;5023311;28;20525;-84
2022/04/15 02:26:22;;;;;;;2.63;1.52;;;;;;;;;;5039659;28;20044;-84
2022/04/15 02:28:48;;;;;;;3.15;1.63;;;;;;;;;;5039864;28;20036;-84
2022/04/15 02:31:13;;;;;;;2.42;2.03;;;;;;;;;;5056168;28;20032;-84
2022/04/15 02:33:40;;;;;;;2.35;1.60;;;;;;;;;;5039596;28;20448;-84
2022/04/15 02:36:06;;;;;;;3.75;2.20;;;;;;;;;;5056266;28;20044;-84
2022/04/15 02:38:32;;;;;;;3.70;2.05;;;;;;;;;;5039558;28;20498;-84
2022/04/15 02:40:58;;;;;;;2.00;1.35;;;;;;;;;;5039783;28;20047;-84
2022/04/15 02:43:25;;;;;;;2.50;1.73;;;;;;;;;;5023258;28;20039;-84
2022/04/15 02:45:51;;;;;;;4.75;2.22;;;;;;;;;;5056873;28;20032;-84
2022/04/15 02:48:16;;;;;;;2.85;1.50;;;;;;;;;;5061932;28;20094;-84
2022/04/15 02:50:42;;;;;;;2.17;1.67;;;;;;;;;;5039730;28;20115;-84
2022/04/15 02:53:07;;;;;;;3.75;2.22;;;;;;;;;;5024079;28;20418;-84
2022/04/15 02:55:33;;;;;;;2.75;1.95;;;;;;;;;;5051191;28;20040;-84
2022/04/15 02:57:59;;;;;;;3.55;2.42;;;;;;;;;;5043078;28;20447;-84
2022/04/15 03:00:26;;;;;;;2.83;1.85;;;;;;;;;;5042778;28;20048;-84
2022/04/15 03:02:51;;;;;;;3.10;2.15;;;;;;;;;;5051885;28;20093;-84
2022/04/15 03:05:17;;;;;;;1.83;1.20;;;;;;;;;;5059546;28;20044;-84
2022/04/15 03:07:44;;;;;;;3.22;2.05;;;;;;;;;;5043022;28;20032;-84
2022/04/15 03:10:09;;;;;;;3.95;2.03;;;;;;;;;;5076146;28;20044;-85
2022/04/15 03:12:37;;;;;;;2.75;1.50;;;;;;;;;;5059688;28;20177;-84
2022/04/15 03:15:04;;;;;;;3.30;1.73;;;;;;;;;;5059555;28;20036;-84
2022/04/15 03:17:31;;;;;;;2.80;1.70;;;;;;;;;;5058999;28;20088;-85
2022/04/15 03:19:57;;;;;;;3.15;1.58;;;;;;;;;;5059224;28;20047;-84
2022/04/15 03:22:23;;;;;;;2.35;1.60;;;;;;;;;;5059732;28;20032;-84
2022/04/15 03:24:50;;;;;;;3.58;2.45;;;;;;;;;;5042687;28;20036;-84
2022/04/15 03:27:15;;;;;;;3.22;1.60;;;;;;;;;;5059262;28;20028;-84
2022/04/15 03:29:43;;;;;;;2.97;1.88;;;;;;;;;;5076334;28;20130;-84
2022/04/15 03:32:09;;;;;;;3.92;2.08;;;;;;;;;;5059020;28;20039;-84
2022/04/15 03:34:35;;;;;;;2.72;1.67;;;;;;;;;;5075452;28;20036;-84
2022/04/15 03:37:00;;;;;;;3.05;1.70;;;;;;;;;;5059115;28;20038;-84
2022/04/15 03:39:26;;;;;;;3.10;2.08;;;;;;;;;;5075465;28;20215;-83
2022/04/15 03:41:51;;;;;;;3.70;1.92;;;;;;;;;;5058898;28;20390;-84
2022/04/15 03:44:16;;;;;;;2.72;1.52;;;;;;;;;;5059278;28;20407;-85
2022/04/15 03:46:42;;;;;;;2.90;1.83;;;;;;;;;;5058366;28;20093;-84
2022/04/15 03:49:08;;;;;;;3.00;1.90;;;;;;;;;;5075564;28;20422;-84
2022/04/15 03:51:34;;;;;;;3.70;1.90;;;;;;;;;;5059001;28;20401;-84
2022/04/15 03:53:59;;;;;;;7.25;2.42;;;;;;;;;;5075252;28;20040;-85
2022/04/15 03:56:26;;;;;;;2.83;2.03;;;;;;;;;;5065527;28;20451;-84
2022/04/15 03:58:51;;;;;;;2.42;1.48;;;;;;;;;;5045054;28;20035;-85
2022/04/15 04:01:16;;;;;;;4.28;1.80;;;;;;;;;;5061354;28;20089;-84
2022/04/15 04:03:42;;;;;;;2.40;1.42;;;;;;;;;;5061751;28;20085;-84
2022/04/15 04:06:08;;;;;;;2.85;1.90;;;;;;;;;;5045001;28;20092;-84
2022/04/15 04:08:33;;;;;;;2.58;1.48;;;;;;;;;;5060948;28;20036;-84
2022/04/15 04:10:58;;;;;;;3.08;2.10;;;;;;;;;;5061687;28;20042;-84
2022/04/15 04:13:24;;;;;;;2.72;1.63;;;;;;;;;;5045342;28;20382;-84
2022/04/15 04:15:49;;;;;;;2.53;1.75;;;;;;;;;;5061450;28;20035;-83
2022/04/15 04:18:20;;;;;;;4.10;2.03;;;;;;;;;;5045202;28;20098;-85
2022/04/15 04:20:46;;;;;;;3.00;1.85;;;;;;;;;;5062096;28;20067;-84
2022/04/15 04:23:11;;;;;;;3.30;2.03;;;;;;;;;;5061720;28;20116;-84
2022/04/15 04:25:37;;;;;;;3.83;1.92;;;;;;;;;;5044992;28;20027;-84
2022/04/15 04:28:04;;;;;;;3.03;1.75;;;;;;;;;;5078346;28;20115;-84
2022/04/15 04:30:30;;;;;;;2.35;1.67;;;;;;;;;;5044332;28;20036;-84
2022/04/15 04:32:58;;;;;;;2.00;1.50;;;;;;;;;;5061229;28;20690;-84
2022/04/15 04:35:24;;;;;;;4.03;1.67;;;;;;;;;;5061289;28;20562;-84
2022/04/15 04:37:50;;;;;;;4.45;2.45;;;;;;;;;;5061323;28;20035;-84
2022/04/15 04:40:15;;;;;;;3.58;1.75;;;;;;;;;;5044971;28;20117;-84
2022/04/15 04:42:42;;;;;;;3.08;2.17;;;;;;;;;;5061031;28;20047;-84
2022/04/15 04:45:10;;;;;;;2.67;1.92;;;;;;;;;;5060975;28;20552;-84
2022/04/15 04:47:36;;;;;;;2.85;1.75;;;;;;;;;;5045145;28;20490;-84
2022/04/15 04:50:01;;;;;;;3.83;2.00;;;;;;;;;;5044532;28;20035;-84
2022/04/15 04:52:26;;;;;;;1.92;1.30;;;;;;;;;;5044756;28;20505;-84
2022/04/15 04:54:52;;;;;;;2.78;1.52;;;;;;;;;;5056303;28;20425;-84
2022/04/15 04:57:18;;;;;;;3.50;1.83;;;;;;;;;;5057419;28;20032;-85
2022/04/15 04:59:44;;;;;;;3.30;2.10;;;;;;;;;;5040412;28;20086;-84
2022/04/15 05:02:12;;;;;;;2.95;2.00;;;;;;;;;;5024287;28;20032;-84
2022/04/15 05:04:39;;;;;;;3.92;1.88;;;;;;;;;;5025096;28;20089;-84
2022/04/15 05:07:05;;;;;;;3.20;2.00;;;;;;;;;;5024694;28;20059;-84
2022/04/15 05:09:31;;;;;;;4.63;2.20;;;;;;;;;;5041037;28;20063;-84
2022/04/15 05:11:56;;;;;;;3.63;1.70;;;;;;;;;;5041255;28;20047;-83
2022/04/15 05:14:21;;;;;;;4.20;2.50;;;;;;;;;;5024255;28;20032;-84
2022/04/15 05:16:47;;;;;;;4.45;2.22;;;;;;;;;;5040947;28;20109;-84
2022/04/15 05:19:13;;;;;;;3.17;1.73;;;;;;;;;;5023679;28;20066;-84
2022/04/15 05:21:39;;;;;;;3.65;2.08;;;;;;;;;;5040558;28;20044;-84
2022/04/15 05:24:06;;;;;;;2.72;1.88;;;;;;;;;;5040501;28;20036;-84
2022/04/15 05:26:33;;;;;;;3.72;2.42;;;;;;;;;;5040733;28;20387;-84
2022/04/15 05:28:59;;;;;;;3.45;1.80;;;;;;;;;;5024261;28;20078;-84
2022/04/15 05:31:25;;;;;;;4.32;1.90;;;;;;;;;;5040333;28;20077;-84
2022/04/15 05:33:50;;;;;;;2.92;2.22;;;;;;;;;;5040271;28;20028;-84
2022/04/15 05:36:16;;;;;;;3.50;2.05;;;;;;;;;;5040299;28;20044;-85
2022/04/15 05:38:42;;;;;;;3.03;1.88;;;;;;;;;;5040389;28;20032;-84
2022/04/15 05:41:09;;;;;;;3.40;2.00;;;;;;;;;;5040501;28;20036;-84
2022/04/15 05:43:34;;;;;;;2.78;1.58;;;;;;;;;;5023676;28;20066;-84
2022/04/15 05:46:00;;;;;;;3.63;2.13;;;;;;;;;;5040028;28;20067;-85
2022/04/15 05:48:25;;;;;;;3.40;1.85;;;;;;;;;;5040274;28;20035;-84
2022/04/15 05:50:51;;;;;;;3.78;1.75;;;;;;;;;;5060198;28;20043;-84
2022/04/15 05:53:17;;;;;;;3.10;1.63;;;;;;;;;;5060532;28;20134;-85
2022/04/15 05:55:42;;;;;;;3.00;1.88;;;;;;;;;;5063956;28;20036;-85
2022/04/15 05:58:10;;;;;;;2.70;1.80;;;;;;;;;;5044736;28;20040;-84
2022/04/15 06:00:36;;;;;;;3.53;2.08;;;;;;;;;;5059670;28;20039;-85
2022/04/15 06:03:02;;;;;;;3.33;2.00;;;;;;;;;;5042809;28;20020;-85
2022/04/15 06:05:27;;;;;;;2.40;1.70;;;;;;;;;;5042341;28;20027;-85
2022/04/15 06:07:54;;;;;;;3.08;1.83;;;;;;;;;;5038801;28;20028;-84
2022/04/15 06:10:19;;;;;;;3.72;2.00;;;;;;;;;;5056230;28;20036;-85
2022/04/15 06:15:30;;;;;;;3.50;1.60;;;;;;;;;;5059394;28;20067;-85
2022/04/15 06:17:55;;;;;;;3.58;1.77;;;;;;;;;;5040633;28;20024;-85
2022/04/15 06:20:21;;;;;;;3.35;2.10;;;;;;;;;;5056574;28;20036;-85
2022/04/15 06:22:47;;;;;;;4.32;2.10;;;;;;;;;;5056612;28;20098;-85
2022/04/15 06:25:13;;;;;;;3.50;1.75;;;;;;;;;;5072381;28;20044;-84
2022/04/15 06:27:38;;;;;;;3.03;1.90;;;;;;;;;;5056123;28;20051;-84
2022/04/15 06:30:07;;;;;;;3.10;2.00;;;;;;;;;;5067969;28;20036;-88
2022/04/15 06:32:33;;;;;;;4.30;1.90;;;;;;;;;;5076891;28;20032;-84
2022/04/15 06:34:59;;;;;;;3.13;1.88;;;;;;;;;;5077001;28;20043;-86
2022/04/15 06:37:25;;;;;;;3.13;2.10;;;;;;;;;;5076938;28;20105;-83
2022/04/15 06:39:51;;;;;;;4.15;2.10;;;;;;;;;;5060229;28;20127;-83
2022/04/15 06:42:23;;;;;;;3.50;2.15;;;;;;;;;;5076755;28;20036;-84
2022/04/15 06:44:49;;;;;;;4.18;2.08;;;;;;;;;;5059951;28;20036;-82
2022/04/15 06:47:14;;;;;;;3.95;2.38;;;;;;;;;;5060134;28;20083;-84
2022/04/15 06:49:40;;;;;;;4.38;2.20;;;;;;;;;;5060046;28;20122;-83
2022/04/15 06:52:06;;;;;;;4.18;2.05;;;;;;;;;;5059780;28;20036;-84
2022/04/15 06:54:33;;;;;;;2.95;2.13;;;;;;;;;;5044986;27;20067;-85
2022/04/15 06:56:58;;;;;;;3.00;2.20;;;;;;;;;;5099727;27;20047;-82
2022/04/15 06:59:24;;;;;;;4.22;2.45;;;;;;;;;;5100279;27;20485;-83
2022/04/15 07:01:49;;;;;;;4.10;2.30;;;;;;;;;;5082923;27;20031;-83
2022/04/15 07:04:16;;;;;;;5.88;3.13;;;;;;;;;;5083075;27;20031;-84
2022/04/15 07:06:42;;;;;;;7.18;3.63;;;;;;;;;;5083767;27;20042;-84
2022/04/15 07:09:08;;;;;;;6.22;3.22;;;;;;;;;;5099901;27;20126;-84
2022/04/15 07:11:34;;;;;;;8.90;3.70;;;;;;;;;;5066240;27;20031;-83
2022/04/15 07:13:59;;;;;;;8.45;4.35;;;;;;;;;;5082898;27;20031;-84
2022/04/15 07:16:25;;;;;;;7.32;4.40;;;;;;;;;;5083135;27;20054;-83
2022/04/15 07:18:52;;;;;;;6.18;4.15;;;;;;;;;;5065182;27;20135;-83
2022/04/15 07:21:18;;;;;;;7.30;4.75;;;;;;;;;;5083721;27;20118;-84
2022/04/15 07:23:44;;;;;;;8.98;4.78;;;;;;;;;;5083282;27;20488;-83
2022/04/15 07:26:10;;;;;;;9.52;4.93;;;;;;;;;;5083169;27;20080;-83
2022/04/15 07:28:35;;;;;;;6.18;4.13;;;;;;;;;;5082697;27;20579;-83
2022/04/15 07:31:01;;;;;;;9.32;4.10;;;;;;;;;;5082384;27;20031;-82
2022/04/15 07:33:27;;;;;;;6.53;4.20;;;;;;;;;;5066026;27;20035;-81
2022/04/15 07:35:52;;;;;;;5.82;3.70;;;;;;;;;;5066112;27;20031;-81
2022/04/15 07:38:18;;;;;;;8.55;4.07;;;;;;;;;;5089440;28;20548;-81
2022/04/15 07:40:43;;;;;;;10.52;5.32;;;;;;;;;;5069339;28;20039;-80
2022/04/15 07:43:09;;;;;;;7.40;4.90;;;;;;;;;;5058904;28;20394;-80
2022/04/15 07:45:34;;;;;;;5.82;4.18;;;;;;;;;;5073731;28;20424;-81
2022/04/15 07:48:00;;;;;;;7.75;4.95;;;;;;;;;;5061672;28;20042;-80
2022/04/15 07:50:25;;;;;;;9.15;4.97;;;;;;;;;;5079179;28;20486;-80
2022/04/15 07:52:56;;;;;;;7.00;4.70;;;;;;;;;;5061800;28;20047;-81
2022/04/15 07:55:21;;;;;;;7.30;4.30;;;;;;;;;;5045545;28;20035;-81
2022/04/15 07:57:48;;;;;;;9.77;5.80;;;;;;;;;;5062981;28;20036;-80
2022/04/15 08:00:14;;;;;;;9.50;6.70;;;;;;;;;;5058789;28;20516;-81
2022/04/15 08:02:40;;;;;;;12.85;8.00;;;;;;;;;;5058165;28;20028;-81
2022/04/15 08:05:05;;;;;;;10.68;7.10;;;;;;;;;;5025631;28;20039;-80
2022/04/15 08:07:31;;;;;;;12.07;7.57;;;;;;;;;;5058262;28;20040;-81
2022/04/15 08:09:56;;;;;;;10.25;6.72;;;;;;;;;;5058554;28;20458;-81
2022/04/15 08:12:22;;;;;;;12.48;8.05;;;;;;;;;;5058593;28;20408;-80
2022/04/15 08:14:47;;;;;;;10.50;8.18;;;;;;;;;;5058217;28;20039;-80
2022/04/15 08:17:13;;;;;;;9.32;6.95;;;;;;;;;;5074594;28;20115;-81
2022/04/15 08:19:38;;;;;;;13.15;8.60;;;;;;;;;;5041721;28;20040;-80
2022/04/15 08:22:09;;;;;;;12.57;7.60;;;;;;;;;;5057745;28;20109;-81
2022/04/15 08:24:38;;;;;;;11.70;8.93;;;;;;;;;;5058968;28;20031;-81
2022/04/15 08:27:04;;;;;;;11.25;7.40;;;;;;;;;;5042272;28;20430;-81
2022/04/15 08:29:29;;;;;;;10.95;7.57;;;;;;;;;;5058276;28;20035;-81
2022/04/15 08:31:55;;;;;;;12.82;7.50;;;;;;;;;;5024736;28;20036;-82
2022/04/15 08:34:20;;;;;;;13.70;7.53;;;;;;;;;;5032052;28;20027;-81
2022/04/15 08:36:46;;;;;;;11.82;7.43;;;;;;;;;;5069144;28;20114;-81
2022/04/15 08:39:11;;;;;;;9.75;7.68;;;;;;;;;;5060163;28;20086;-81
2022/04/15 08:41:42;;;;;;;13.02;7.43;;;;;;;;;;5062384;28;20406;-80
2022/04/15 08:44:08;;;;;;;12.45;7.78;;;;;;;;;;5066999;28;20066;-81
2022/04/15 08:46:34;;;;;;;9.70;5.40;;;;;;;;;;5060468;28;20047;-81
2022/04/15 08:49:00;;;;;;;8.98;5.28;;;;;;;;;;5047359;28;20039;-81
2022/04/15 08:51:26;;;;;;;8.55;5.10;;;;;;;;;;5042815;28;20422;-81
2022/04/15 08:53:54;;;;;;;9.60;5.22;;;;;;;;;;5071144;28;20047;-80
2022/04/15 08:56:21;;;;;;;6.50;3.75;;;;;;;;;;5063133;28;20031;-82
2022/04/15 08:58:47;;;;;;;14.90;5.50;;;;;;;;;;5073994;28;20417;-80
2022/04/15 09:01:12;;;;;;;18.90;13.23;;;;;;;;;;5039763;28;20036;-81
2022/04/15 09:03:38;;;;;;;16.50;12.93;;;;;;;;;;5075715;28;20032;-81
2022/04/15 09:06:04;;;;;;;18.02;11.27;;;;;;;;;;5042497;28;20031;-80
2022/04/15 09:08:29;;;;;;;12.65;8.98;;;;;;;;;;5052495;28;20934;-81
2022/04/15 09:10:59;;;;;;;12.13;7.10;;;;;;;;;;5054960;28;20101;-80
2022/04/15 09:13:31;;;;;;;8.73;5.85;;;;;;;;;;5060119;28;20024;-80
2022/04/15 09:15:59;;;;;;;11.15;6.07;;;;;;;;;;5052900;28;20529;-80
2022/04/15 09:18:37;;;;;;;7.97;5.18;;;;;;;;;;5079726;28;20040;-82
2022/04/15 09:21:22;;;;;;;9.90;5.35;;;;;;;;;;5024401;28;20056;-82
2022/04/15 09:23:48;;;;;;;7.95;4.40;;;;;;;;;;5041169;28;20071;-83
2022/04/15 09:26:14;;;;;;;8.30;4.40;;;;;;;;;;5071243;28;20539;-83
2022/04/15 09:28:40;;;;;;;9.23;4.85;;;;;;;;;;5049598;28;20516;-84
2022/04/15 09:31:13;;;;;;;13.32;4.65;;;;;;;;;;5038928;28;20035;-84
2022/04/15 09:33:38;;;;;;;10.95;4.70;;;;;;;;;;5035158;28;20067;-83
2022/04/15 09:36:04;;;;;;;8.63;6.53;;;;;;;;;;5023797;28;20509;-83
2022/04/15 09:38:49;;;;;;;13.30;8.85;;;;;;;;;;5030746;28;20061;-83
2022/04/15 09:41:19;;;;;;;15.13;6.88;;;;;;;;;;5075958;28;20489;-82
2022/04/15 09:43:54;;;;;;;12.15;4.78;;;;;;;;;;5040371;28;20039;-82
2022/04/15 09:46:20;;;;;;;8.68;4.90;;;;;;;;;;5055963;28;20024;-83
2022/04/15 09:49:06;;;;;;;9.65;4.70;;;;;;;;;;5076267;28;20031;-82
2022/04/15 09:51:36;;;;;;;7.75;3.05;;;;;;;;;;5059883;28;20035;-82
2022/04/15 09:54:06;;;;;;;7.07;3.45;;;;;;;;;;5076820;28;20036;-83
2022/04/15 09:56:39;;;;;;;10.52;3.38;;;;;;;;;;5039770;28;20029;-83
2022/04/15 09:59:12;;;;;;;7.80;2.67;;;;;;;;;;5040585;28;20024;-82
2022/04/15 10:01:40;;;;;;;11.02;3.63;;;;;;;;;;5024836;28;20035;-82
2022/04/15 10:04:06;;;;;;;5.03;2.30;;;;;;;;;;5057265;28;20028;-83
2022/04/15 10:06:31;;;;;;;7.03;2.67;;;;;;;;;;5027722;28;20136;-82
2022/04/15 10:08:57;;;;;;;6.22;2.42;;;;;;;;;;5060721;28;20035;-83
2022/04/15 10:11:23;;;;;;;5.30;2.47;;;;;;;;;;5043300;28;20036;-82
2022/04/15 10:13:48;;;;;;;5.40;2.38;;;;;;;;;;5044291;28;20036;-82
2022/04/15 10:16:14;;;;;;;4.45;2.20;;;;;;;;;;5027339;28;20092;-83
2022/04/15 10:18:40;;;;;;;5.80;2.55;;;;;;;;;;5043306;28;20036;-82
2022/04/15 10:21:06;;;;;;;6.25;2.30;;;;;;;;;;5043808;28;20032;-82
2022/04/15 10:23:31;;;;;;;5.55;2.65;;;;;;;;;;5028957;28;20067;-82
2022/04/15 10:25:59;;;;;;;3.60;2.90;;;;;;;;;;5080180;28;20562;-83
2022/04/15 10:28:42;;;;;;;5.20;2.70;;;;;;;;;;5064639;28;20032;-83
2022/04/15 10:31:13;;;;;;;7.60;3.42;;;;;;;;;;5080933;28;20067;-82
2022/04/15 10:33:42;;;;;;;9.15;6.85;;;;;;;;;;5063163;28;20036;-82
2022/04/15 10:36:13;;;;;;;13.02;10.05;;;;;;;;;;5080460;28;20055;-82
2022/04/15 10:39:03;;;;;;;12.32;10.73;;;;;;;;;;5063586;28;20548;-82
2022/04/15 10:41:40;;;;;;;12.98;10.10;;;;;;;;;;5097380;28;20412;-83
2022/04/15 10:44:05;;;;;;;12.27;9.80;;;;;;;;;;5064793;28;20059;-82
2022/04/15 10:46:31;;;;;;;8.77;7.70;;;;;;;;;;5079931;28;20521;-83
2022/04/15 10:48:58;;;;;;;10.82;7.13;;;;;;;;;;5079294;28;20048;-83
2022/04/15 10:51:29;;;;;;;7.75;6.57;;;;;;;;;;5080309;28;20054;-83
2022/04/15 10:53:55;;;;;;;10.90;6.75;;;;;;;;;;5063478;28;20115;-83
2022/04/15 10:56:23;;;;;;;10.00;7.60;;;;;;;;;;5076656;28;20041;-84
2022/04/15 11:01:53;;;;;;;7.78;5.65;;;;;;;;;;5065261;28;20032;-83
2022/04/15 11:04:22;;;;;;;;;;;;;;;;;;5043840;28;20071;-83
2022/04/15 11:06:48;;;;;;;9.40;6.15;;;;;;;;;;5059878;28;20389;-82
2022/04/15 11:09:14;;;;;;;7.40;4.85;;;;;;;;;;5076265;28;20107;-82
2022/04/15 11:11:41;;;;;;;11.93;5.10;;;;;;;;;;5043265;28;20123;-82
2022/04/15 11:14:08;;;;;;;9.90;4.63;;;;;;;;;;5059869;28;20070;-82
2022/04/15 11:16:43;;;;;;;8.40;4.35;;;;;;;;;;5058891;28;20028;-82
2022/04/15 11:19:11;;;;;;;7.10;4.45;;;;;;;;;;5031168;28;20093;-82
2022/04/15 11:21:39;;;;;;;9.13;3.88;;;;;;;;;;5027197;28;20052;-82
2022/04/15 11:24:12;;;;;;;6.53;4.00;;;;;;;;;;5059926;28;20040;-83
2022/04/15 11:26:37;;;;;;;;;;;;;;;;;;5043049;28;20040;-82
2022/04/15 11:29:04;;;;;;;7.60;3.67;;;;;;;;;;5076200;28;19919;-82
2022/04/15 11:31:34;;;;;;;7.03;3.92;;;;;;;;;;5075608;28;20123;-83
2022/04/15 11:34:16;;;;;;;6.28;3.25;;;;;;;;;;5059360;28;20044;-83
2022/04/15 11:36:48;;;;;;;6.50;3.25;;;;;;;;;;5075729;28;20040;-82
2022/04/15 11:39:18;;;;;;;5.70;3.85;;;;;;;;;;5075936;28;20036;-82
2022/04/15 11:41:49;;;;;;;6.55;3.30;;;;;;;;;;5042662;28;20379;-82
2022/04/15 11:44:15;;;;;;;6.57;3.63;;;;;;;;;;5083661;28;20115;-81
2022/04/15 11:46:41;;;;;;;5.50;3.15;;;;;;;;;;5040973;28;20032;-82
2022/04/15 11:49:30;;;;;;;4.60;2.97;;;;;;;;;;5072692;28;20051;-82
2022/04/15 11:51:57;;;;;;;5.40;3.20;;;;;;;;;;5066636;28;20058;-82
2022/04/15 11:54:23;;;;;;;8.02;3.40;;;;;;;;;;5025854;28;20059;-82
2022/04/15 11:56:53;;;;;;;9.10;2.95;;;;;;;;;;5054916;28;20036;-81
2022/04/15 11:59:18;;;;;;;7.57;3.97;;;;;;;;;;5075655;28;20047;-82
2022/04/15 12:01:44;;;;;;;9.98;3.85;;;;;;;;;;5044606;28;20052;-83
2022/04/15 12:04:09;;;;;;;8.52;3.55;;;;;;;;;;5067277;28;20044;-83
2022/04/15 12:06:40;;;;;;;9.10;3.85;;;;;;;;;;5056901;28;20498;-82
2022/04/15 12:09:07;;;;;;;7.68;3.22;;;;;;;;;;5079463;28;20118;-82
2022/04/15 12:11:32;;;;;;;10.88;2.83;;;;;;;;;;5060466;28;20039;-82
2022/04/15 12:14:01;;;;;;;10.35;3.45;;;;;;;;;;5049231;28;20528;-82
2022/04/15 12:16:31;;;;;;;6.85;3.00;;;;;;;;;;5046729;28;20092;-82
2022/04/15 12:18:57;;;;;;;10.07;3.58;;;;;;;;;;5041650;28;20105;-83
2022/04/15 12:21:23;;;;;;;4.63;2.90;;;;;;;;;;5058324;28;20082;-83
2022/04/15 12:24:02;;;;;;;6.85;2.55;;;;;;;;;;5056311;28;20039;-83
2022/04/15 12:26:28;;;;;;;7.13;3.05;;;;;;;;;;5057686;28;20060;-82
2022/04/15 12:31:45;;;;;;;8.98;3.08;;;;;;;;;;5074317;28;20032;-82
2022/04/15 12:34:11;;;;;;;8.13;3.22;;;;;;;;;;5070168;28;20036;-83
2022/04/15 12:36:45;;;;;;;5.28;3.08;;;;;;;;;;5076099;28;20036;-82
2022/04/15 12:39:11;;;;;;;6.05;2.85;;;;;;;;;;5061601;28;20032;-82
2022/04/15 12:41:48;;;;;;;5.80;3.30;;;;;;;;;;5055647;28;20040;-82
2022/04/15 12:44:20;;;;;;;13.05;6.20;;;;;;;;;;5043699;28;20020;-83
2022/04/15 12:46:48;;;;;;;;;;;;;;;;;;5072067;28;20110;-82
2022/04/15 12:49:33;;;;;;;13.38;9.27;;;;;;;;;;5068448;28;20374;-82
2022/04/15 12:52:16;;;;;;;10.52;7.78;;;;;;;;;;5011879;28;20441;-81
2022/04/15 12:55:00;;;;;;;14.25;8.98;;;;;;;;;;5006882;28;20033;-81
2022/04/15 12:57:33;;;;;;;13.45;7.93;;;;;;;;;;5024272;28;20045;-82
2022/04/15 12:59:58;;;;;;;14.43;8.23;;;;;;;;;;5009437;28;20041;-82
2022/04/15 13:02:24;;;;;;;12.40;8.35;;;;;;;;;;5025972;28;20034;-81
2022/04/15 13:04:53;;;;;;;14.57;8.10;;;;;;;;;;5010897;28;20500;-81
2022/04/15 13:07:19;;;;;;;13.52;8.23;;;;;;;;;;5043295;28;20026;-81
2022/04/15 13:09:45;;;;;;;12.02;7.68;;;;;;;;;;5027484;28;20076;-81
2022/04/15 13:12:12;;;;;;;11.65;6.95;;;;;;;;;;5025924;28;20033;-82
2022/04/15 13:14:37;;;;;;;8.70;5.63;;;;;;;;;;5043511;28;20041;-81
2022/04/15 13:17:03;;;;;;;10.00;5.80;;;;;;;;;;5027031;28;20407;-81
2022/04/15 13:19:28;;;;;;;7.95;5.40;;;;;;;;;;5044119;28;20041;-81
2022/04/15 13:21:54;;;;;;;8.00;4.88;;;;;;;;;;5010848;28;20038;-81
2022/04/15 13:24:19;;;;;;;8.95;5.13;;;;;;;;;;5027142;28;20049;-81
2022/04/15 13:26:44;;;;;;;7.40;4.30;;;;;;;;;;5026705;28;20037;-81
2022/04/15 13:29:10;;;;;;;7.25;4.60;;;;;;;;;;5027472;28;20037;-81
2022/04/15 13:31:36;;;;;;;7.55;4.55;;;;;;;;;;5026598;28;20039;-81
2022/04/15 13:34:01;;;;;;;6.78;4.75;;;;;;;;;;5043838;28;20045;-81
2022/04/15 13:36:27;;;;;;;6.60;3.70;;;;;;;;;;5027089;28;20026;-81
2022/04/15 13:38:53;;;;;;;5.78;3.28;;;;;;;;;;5043532;28;20034;-81
2022/04/15 13:41:19;;;;;;;5.47;3.38;;;;;;;;;;5026713;28;20037;-81
2022/04/15 13:43:44;;;;;;;5.60;3.50;;;;;;;;;;5043285;28;20038;-81
2022/04/15 13:46:10;;;;;;;4.82;3.22;;;;;;;;;;5043311;28;20151;-81
2022/04/15 13:48:36;;;;;;;4.80;2.95;;;;;;;;;;5042958;28;20488;-81
2022/04/15 13:51:01;;;;;;;4.95;3.28;;;;;;;;;;5026683;28;20045;-81
2022/04/15 13:58:54;;;;;;;6.45;3.75;;;;;;;;;;5037132;28;20030;-81
2022/04/15 14:01:27;;;;;;;5.38;2.75;;;;;;;;;;5029340;28;20615;-81
2022/04/15 14:03:56;;;;;;;4.35;3.10;;;;;;;;;;5013362;28;20046;-82
2022/04/15 14:06:21;;;;;;;4.75;2.75;;;;;;;;;;5029439;28;20026;-82
2022/04/15 14:08:47;;;;;;;4.47;2.25;;;;;;;;;;5012817;28;20382;-82
2022/04/15 14:11:12;;;;;;;4.72;2.75;;;;;;;;;;5029454;28;20081;-82
2022/04/15 14:13:38;;;;;;;4.05;2.80;;;;;;;;;;5013121;28;20034;-82
2022/04/15 14:16:04;;;;;;;4.65;2.55;;;;;;;;;;5013059;28;20041;-82
2022/04/15 14:18:30;;;;;;;3.45;2.28;;;;;;;;;;5012900;28;20053;-82
2022/04/15 14:20:55;;;;;;;3.72;2.42;;;;;;;;;;5029519;28;20118;-82
2022/04/15 14:23:21;;;;;;;4.63;2.72;;;;;;;;;;5012636;28;20037;-82
2022/04/15 14:25:46;;;;;;;5.53;2.95;;;;;;;;;;5029061;28;20122;-81
2022/04/15 14:28:12;;;;;;;4.15;2.53;;;;;;;;;;5012805;28;20037;-81
2022/04/15 14:30:37;;;;;;;5.22;2.67;;;;;;;;;;5028970;28;20038;-81
2022/04/15 14:33:03;;;;;;;4.68;2.50;;;;;;;;;;5028994;28;20420;-81
2022/04/15 14:35:28;;;;;;;4.78;2.65;;;;;;;;;;5012701;28;20056;-81
2022/04/15 14:37:54;;;;;;;3.67;2.30;;;;;;;;;;5012649;28;20041;-81
2022/04/15 14:40:19;;;;;;;5.43;2.95;;;;;;;;;;5012389;28;20026;-81
2022/04/15 14:42:44;;;;;;;5.68;2.50;;;;;;;;;;5029089;28;20451;-81
2022/04/15 14:45:10;;;;;;;7.75;2.58;;;;;;;;;;5012176;28;20042;-81
2022/04/15 14:47:35;;;;;;;4.20;2.10;;;;;;;;;;5012205;28;20447;-81
2022/04/15 14:50:05;;;;;;;4.43;2.50;;;;;;;;;;5012643;28;20041;-81
2022/04/15 14:52:31;;;;;;;3.67;2.40;;;;;;;;;;5012893;28;20069;-81
2022/04/15 14:54:57;;;;;;;5.93;2.55;;;;;;;;;;5011890;28;20026;-81